EGFFEGGD

Guest
Details From EGFF - Cardiff
To EGGD - Bristol Lulsgate
Flight Number -
Tags Generated
Created
Modified
Stats Distance 23 nm / 43 km
Max Altitude 0 ft / 0 m
Waypoints 2
Social Downloads 6
Likes 0
Share VATSIM

Download

Looking for another format? Having issues loading an existing format? Contact us
Advertisement - Login to hide

Notes

Generated

Route

EGFF EGGD

ID Type Via Altitude Latitude Longitude Leg Dist Tot Dist Heading (true) Name
O EGFF APT - 0 ft / 0 m 51.40151˚ -3.35867˚ - 0 nm - -
O EGGD APT - 0 ft / 0 m 51.38211˚ -2.73350˚ 23 nm 23 nm 93° / 93° -

Altitude Profile

Advertisement - Login to hide

EGFF

Details ICAO EGFF (CWL)
Name Cardiff
Region United Kingdom
Timezone Europe/London (UTC+1.0)
Stats Elevation 220 ft / 67 m (AMSL)
Location 51.396565° -3.343202°
Runways 1
Magnetic Variation 1.511° W

METAR

EGFF 260620Z AUTO 05009KT 4800 HZ NCD 14/13 Q1020

Decode

TAF

TAF EGFF 260458Z 2606/2706 04012KT 5000 HZ SCT020 PROB40 TEMPO 2606/2612 2500 BR BKN004 TEMPO 2608/2615 SHRA BECMG 2612/2615 9999 NSW TEMPO 2615/2706 6000 SHRA PROB30 TEMPO 2615/2618 4000 +SHRA PROB40 TEMPO 2618/2706 06020G30KT 2000 +SHRA TSGR

Decode

Departure Runways

ID Width Length Bearing (true) Bearing (mag) Surface Threshold Offset Overrun Length
12 131 ft / 40 m 7,831 ft / 2,387 m 116.82° 118.33° Asphalt 715 ft / 218 m 0 ft / 0 m
30 131 ft / 40 m 7,831 ft / 2,387 m 296.84° 298.35° Asphalt 594 ft / 181 m 0 ft / 0 m

EGGD

Details ICAO EGGD (BRS)
Name Bristol International
Region United Kingdom
Timezone Europe/London (UTC+1.0)
Stats Elevation 622 ft / 190 m (AMSL)
Location 51.382658° -2.718918°
Runways 1
Magnetic Variation 1.283° W

METAR

EGGD 260620Z AUTO 04010KT 1800 BR OVC002 13/13 Q1020

Decode

TAF

TAF EGGD 260507Z 2606/2706 05008KT 2000 BR SCT020 PROB40 2606/2608 0200 FG BKN001 BECMG 2608/2611 9999 NSW PROB30 TEMPO 2609/2618 4000 +SHRA BKN014 BKN045CB TEMPO 2618/2706 05015G25KT 3000 +TSRA BKN010 BKN045CB BECMG 2622/2701 12010KT

Decode

Destination Runways

ID Width Length Bearing (true) Bearing (mag) Surface Threshold Offset Overrun Length
09 148 ft / 45 m 6,655 ft / 2,029 m 86.42° 87.70° Asphalt 0 ft / 0 m 0 ft / 0 m
27 148 ft / 45 m 6,655 ft / 2,029 m 266.44° 267.72° Asphalt 499 ft / 152 m 0 ft / 0 m

Approach Navaids

Runway Type Ident Frequency Range Bearing (true) Bearing (mag) Slope Elevation
09 Localiser IBON 110.15 MHz 18 nm / 33 km 86.40° 87.68° - 622 ft / 190 m (AMSL)
09 Glidescope IBON 110.15 MHz 10 nm / 19 km 86.43° 87.72° 3.00° 622 ft / 190 m (AMSL)
09 DME IBON 110.15 MHz 18 nm / 33 km - - - 632 ft / 193 m (AMSL)
27 Localiser IBTS 110.15 MHz 18 nm / 33 km 266.47° 267.76° - 622 ft / 190 m (AMSL)
27 Glidescope IBTS 110.15 MHz 10 nm / 19 km 266.43° 267.72° 3.00° 632 ft / 193 m (AMSL)
27 DME IBTS 110.15 MHz 18 nm / 33 km - - - 631 ft / 192 m (AMSL)

Popular Alternatives